createdAt,value
2017-08-08T00:01:17.918Z,5.53
2017-08-08T00:03:47.771Z,4.97
2017-08-08T00:06:18.129Z,5.87
2017-08-08T00:08:48.011Z,11.87
2017-08-08T00:11:18.297Z,7.03
2017-08-08T00:13:48.150Z,12.30
2017-08-08T00:16:18.513Z,6.03
2017-08-08T00:18:48.445Z,5.87
2017-08-08T00:21:18.753Z,8.43
2017-08-08T00:23:48.606Z,6.50
2017-08-08T00:26:18.909Z,10.93
2017-08-08T00:28:48.823Z,10.40
2017-08-08T00:31:18.759Z,5.63
2017-08-08T00:33:49.030Z,6.57
2017-08-08T00:36:18.877Z,6.20
2017-08-08T00:38:48.759Z,5.83
2017-08-08T00:41:18.987Z,7.00
2017-08-08T00:43:48.847Z,10.73
2017-08-08T00:46:18.713Z,8.87
2017-08-08T00:48:48.935Z,7.53
2017-08-08T00:51:18.777Z,7.93
2017-08-08T00:53:48.668Z,6.97
2017-08-08T00:56:18.891Z,7.10
2017-08-08T00:58:48.787Z,6.47
2017-08-08T01:01:18.672Z,9.10
2017-08-08T01:03:48.951Z,8.03
2017-08-08T01:06:18.853Z,7.33
2017-08-08T01:08:48.749Z,7.90
2017-08-08T01:11:18.970Z,7.07
2017-08-08T01:13:48.873Z,9.40
2017-08-08T01:16:18.794Z,6.63
2017-08-08T01:18:49.023Z,7.00
2017-08-08T01:21:18.892Z,9.13
2017-08-08T01:23:49.158Z,8.23
2017-08-08T01:26:19.026Z,6.90
2017-08-08T01:28:49.290Z,7.57
2017-08-08T01:31:19.160Z,6.10
2017-08-08T01:33:49.368Z,6.13
2017-08-08T01:36:19.235Z,7.23
2017-08-08T01:38:49.466Z,7.30
2017-08-08T01:41:19.336Z,6.17
2017-08-08T01:43:49.638Z,5.90
2017-08-08T01:46:19.757Z,6.97
2017-08-08T01:48:49.984Z,16.37
2017-08-08T01:51:19.909Z,5.33
2017-08-08T01:53:50.291Z,7.07
2017-08-08T01:56:20.150Z,6.20
2017-08-08T01:58:50.417Z,7.57
2017-08-08T02:01:20.304Z,5.87
2017-08-08T02:03:50.540Z,7.43
2017-08-08T02:06:20.408Z,13.50
2017-08-08T02:08:50.676Z,10.47
2017-08-08T02:11:20.543Z,5.70
2017-08-08T02:13:50.809Z,6.47
2017-08-08T02:16:20.679Z,7.50
2017-08-08T02:18:50.955Z,8.80
2017-08-08T02:21:20.823Z,6.20
2017-08-08T02:23:50.714Z,8.90
2017-08-08T02:26:20.956Z,5.60
2017-08-08T02:28:50.845Z,6.17
2017-08-08T02:31:21.213Z,6.20
2017-08-08T02:33:51.071Z,7.63
2017-08-08T02:36:21.486Z,7.80
2017-08-08T02:38:51.363Z,7.40
2017-08-08T02:41:21.734Z,6.33
2017-08-08T02:43:51.706Z,6.33
2017-08-08T02:46:21.914Z,7.60
2017-08-08T02:48:51.778Z,6.53
2017-08-08T02:51:21.661Z,6.17
2017-08-08T02:53:51.959Z,12.03
2017-08-08T02:56:21.825Z,13.03
2017-08-08T02:58:51.705Z,5.90
2017-08-08T03:01:21.943Z,6.70
2017-08-08T03:03:51.837Z,6.37
2017-08-08T03:06:21.713Z,5.87
2017-08-08T03:08:52.003Z,7.70
2017-08-08T03:11:21.891Z,6.23
2017-08-08T03:13:52.218Z,6.57
2017-08-08T03:16:22.079Z,6.27
2017-08-08T03:18:52.378Z,7.03
2017-08-08T03:21:22.226Z,6.57
2017-08-08T03:23:52.497Z,6.80
2017-08-08T03:26:22.405Z,6.80
2017-08-08T03:28:52.734Z,7.87
2017-08-08T03:31:22.599Z,5.70
2017-08-08T03:33:52.864Z,5.93
2017-08-08T03:36:22.768Z,5.57
2017-08-08T03:38:52.640Z,5.97
2017-08-08T03:41:22.913Z,7.63
2017-08-08T03:43:52.752Z,8.90
2017-08-08T03:46:22.684Z,7.23
2017-08-08T03:48:52.970Z,7.03
2017-08-08T03:51:22.810Z,7.67
2017-08-08T03:53:52.707Z,5.50
2017-08-08T03:56:22.960Z,6.47
2017-08-08T03:58:52.822Z,7.63
2017-08-08T04:01:22.695Z,10.63
2017-08-08T04:03:52.973Z,6.40
2017-08-08T04:06:22.819Z,6.10
2017-08-08T04:08:52.690Z,5.97
2017-08-08T04:11:22.915Z,5.57
2017-08-08T04:13:52.842Z,5.93
2017-08-08T04:16:22.802Z,5.30
2017-08-08T04:18:53.145Z,9.27
2017-08-08T04:21:23.133Z,7.53
2017-08-08T04:23:53.354Z,5.87
2017-08-08T04:26:23.194Z,5.67
2017-08-08T04:28:53.420Z,9.67
2017-08-08T04:31:23.315Z,6.33
2017-08-08T04:33:53.564Z,6.40
2017-08-08T04:36:23.425Z,6.13
2017-08-08T04:38:53.652Z,5.70
2017-08-08T04:41:23.519Z,8.40
2017-08-08T04:43:53.732Z,5.10
2017-08-08T04:46:23.717Z,5.50
2017-08-08T04:48:53.960Z,5.23
2017-08-08T04:51:23.814Z,8.37
2017-08-08T04:53:53.716Z,5.30
2017-08-08T04:56:24.017Z,7.10
2017-08-08T04:58:53.890Z,4.53
2017-08-08T05:01:23.779Z,5.53
2017-08-08T05:03:54.088Z,6.10
2017-08-08T05:06:23.949Z,6.90
2017-08-08T05:08:54.202Z,5.27
2017-08-08T05:11:24.168Z,9.53
2017-08-08T05:13:54.465Z,4.57
2017-08-08T05:16:24.382Z,6.67
2017-08-08T05:18:54.660Z,13.47
2017-08-08T05:21:24.508Z,4.57
2017-08-08T05:23:54.832Z,4.40
2017-08-08T05:26:24.901Z,4.40
2017-08-08T05:28:55.126Z,5.43
2017-08-08T05:31:24.997Z,8.03
2017-08-08T05:33:55.386Z,4.40
2017-08-08T05:36:25.268Z,7.57
2017-08-08T05:38:55.531Z,4.80
2017-08-08T05:41:25.415Z,7.83
2017-08-08T05:43:55.666Z,12.83
2017-08-08T05:46:25.535Z,6.10
2017-08-08T05:48:55.787Z,5.13
2017-08-08T05:51:25.659Z,6.40
2017-08-08T05:53:56.019Z,8.57
2017-08-08T05:56:25.856Z,9.07
2017-08-08T05:58:55.732Z,4.20
2017-08-08T06:01:25.984Z,4.40
2017-08-08T06:03:55.853Z,4.60
2017-08-08T06:06:26.205Z,6.83
2017-08-08T06:08:56.044Z,4.67
2017-08-08T06:11:26.341Z,4.40
2017-08-08T06:13:56.202Z,6.33
2017-08-08T06:16:26.579Z,5.40
2017-08-08T06:18:56.494Z,4.80
2017-08-08T06:21:26.821Z,8.10
2017-08-08T06:23:56.678Z,6.00
2017-08-08T06:26:26.896Z,5.57
2017-08-08T06:28:56.864Z,6.07
2017-08-08T06:31:26.735Z,6.83
2017-08-08T06:33:57.131Z,8.43
2017-08-08T06:36:26.977Z,6.77
2017-08-08T06:38:57.214Z,5.77
2017-08-08T06:41:27.082Z,3.17
2017-08-08T06:43:57.377Z,3.50
2017-08-08T06:46:27.299Z,4.40
2017-08-08T06:48:57.626Z,11.30
2017-08-08T06:51:27.577Z,6.20
2017-08-08T06:53:57.825Z,5.10
2017-08-08T06:56:27.814Z,21.00
2017-08-08T06:58:57.673Z,6.47
2017-08-08T07:01:27.867Z,6.13
2017-08-08T07:03:57.820Z,8.73
2017-08-08T07:06:27.712Z,6.73
2017-08-08T07:08:58.070Z,8.03
2017-08-08T07:11:28.013Z,4.90
2017-08-08T07:13:58.262Z,4.10
2017-08-08T07:16:28.155Z,5.10
2017-08-08T07:18:58.419Z,4.93
2017-08-08T07:21:28.334Z,8.10
2017-08-08T07:23:58.710Z,7.40
2017-08-08T07:26:28.648Z,4.43
2017-08-08T07:28:58.994Z,7.53
2017-08-08T07:31:29.001Z,5.83
2017-08-08T07:33:59.396Z,6.33
2017-08-08T07:36:30.134Z,4.07
2017-08-08T07:39:00.375Z,8.07
2017-08-08T07:41:30.250Z,6.60
2017-08-08T07:44:00.629Z,6.20
2017-08-08T07:46:30.495Z,5.40
2017-08-08T07:49:00.751Z,13.33
2017-08-08T07:51:30.760Z,9.43
2017-08-08T07:54:01.291Z,7.27
2017-08-08T07:56:31.182Z,5.23
2017-08-08T07:59:01.459Z,3.80
2017-08-08T08:01:31.349Z,4.27
2017-08-08T08:04:01.675Z,4.63
2017-08-08T08:06:31.550Z,3.70
2017-08-08T08:09:01.992Z,3.03
2017-08-08T08:11:31.850Z,5.03
2017-08-08T08:14:02.138Z,5.17
2017-08-08T08:16:32.039Z,4.30
2017-08-08T08:19:02.407Z,3.90
2017-08-08T08:21:32.292Z,5.17
2017-08-08T08:24:02.519Z,6.93
2017-08-08T08:26:32.404Z,3.53
2017-08-08T08:29:02.650Z,5.43
2017-08-08T08:31:32.531Z,4.97
2017-08-08T08:34:02.847Z,4.60
2017-08-08T08:36:32.743Z,7.03
2017-08-08T08:39:06.361Z,7.87
2017-08-08T08:41:36.235Z,6.13
2017-08-08T08:44:09.733Z,4.60
2017-08-08T08:46:39.657Z,6.47
2017-08-08T08:49:09.940Z,5.17
2017-08-08T08:51:39.792Z,4.80
2017-08-08T08:54:09.666Z,27.07
2017-08-08T08:56:39.889Z,3.73
2017-08-08T08:59:09.730Z,4.07
2017-08-08T09:01:40.731Z,5.23
2017-08-08T09:04:10.606Z,6.17
2017-08-08T09:06:40.879Z,7.27
2017-08-08T09:09:10.762Z,4.50
2017-08-08T09:11:40.648Z,5.70
2017-08-08T09:14:11.018Z,6.60
2017-08-08T09:16:41.096Z,12.63
2017-08-08T09:19:11.479Z,4.70
2017-08-08T09:21:41.379Z,3.17
2017-08-08T09:24:13.451Z,6.13
2017-08-08T09:26:43.358Z,2.80
2017-08-08T09:29:13.581Z,2.73
2017-08-08T09:31:43.515Z,6.03
2017-08-08T09:34:13.810Z,6.60
2017-08-08T09:36:43.793Z,6.50
2017-08-08T09:39:14.054Z,8.13
2017-08-08T09:41:43.921Z,12.80
2017-08-08T09:44:14.134Z,8.97
2017-08-08T09:46:43.999Z,9.70
2017-08-08T09:49:14.224Z,3.50
2017-08-08T09:51:44.074Z,7.23
2017-08-08T09:54:14.351Z,4.10
2017-08-08T09:56:44.229Z,55.60
2017-08-08T09:59:14.492Z,4.03
2017-08-08T10:01:44.370Z,3.20
2017-08-08T10:04:14.630Z,5.60
2017-08-08T10:06:44.480Z,3.33
2017-08-08T10:09:14.799Z,10.23
2017-08-08T10:11:44.690Z,2.90
2017-08-08T10:14:15.003Z,4.13
2017-08-08T10:16:44.863Z,12.00
2017-08-08T10:19:14.733Z,3.40
2017-08-08T10:21:45.037Z,7.53
2017-08-08T10:24:14.884Z,7.23
2017-08-08T10:26:45.190Z,9.90
2017-08-08T10:29:15.056Z,4.10
2017-08-08T10:31:45.330Z,4.33
2017-08-08T10:34:15.340Z,5.20
2017-08-08T10:36:45.650Z,5.13
2017-08-08T10:39:15.527Z,6.20
2017-08-08T10:41:45.814Z,4.63
2017-08-08T10:44:24.492Z,5.53
2017-08-08T10:46:54.726Z,6.83
2017-08-08T10:49:24.631Z,5.10
2017-08-08T10:51:54.964Z,4.27
2017-08-08T10:54:24.850Z,3.90
2017-08-08T10:56:54.719Z,6.57
2017-08-08T10:59:25.033Z,5.87
2017-08-08T11:01:54.911Z,4.50
2017-08-08T11:04:25.159Z,5.57
2017-08-08T11:06:55.032Z,4.10
2017-08-08T11:09:25.422Z,6.73
2017-08-08T11:11:55.301Z,5.90
2017-08-08T11:14:25.628Z,11.10
2017-08-08T11:16:55.743Z,5.03
2017-08-08T11:19:26.011Z,8.37
2017-08-08T11:21:55.866Z,24.20
2017-08-08T11:24:25.803Z,5.33
2017-08-08T11:26:56.111Z,8.50
2017-08-08T11:29:25.962Z,7.30
2017-08-08T11:32:01.422Z,6.10
2017-08-08T11:34:31.344Z,6.80
2017-08-08T11:37:01.750Z,14.47
2017-08-08T11:39:37.255Z,4.10
2017-08-08T11:42:07.586Z,5.50
2017-08-08T11:44:52.167Z,9.57
2017-08-08T11:47:22.620Z,7.73
2017-08-08T11:49:52.459Z,5.77
2017-08-08T11:52:22.799Z,6.57
2017-08-08T11:54:52.670Z,4.37
2017-08-08T11:57:22.958Z,7.93
2017-08-08T11:59:52.876Z,6.43
2017-08-08T12:02:23.209Z,4.10
2017-08-08T12:04:53.048Z,7.23
2017-08-08T12:07:23.309Z,4.63
2017-08-08T12:09:53.179Z,10.40
2017-08-08T12:12:23.500Z,6.37
2017-08-08T12:14:53.445Z,7.60
2017-08-08T12:17:23.823Z,4.73
2017-08-08T12:19:53.868Z,7.80
2017-08-08T12:22:24.079Z,9.10
2017-08-08T12:24:53.997Z,3.77
2017-08-08T12:27:24.583Z,6.23
2017-08-08T12:29:54.496Z,5.57
2017-08-08T12:32:24.808Z,13.40
2017-08-08T12:34:54.712Z,4.03
2017-08-08T12:37:25.046Z,5.13
2017-08-08T12:39:55.843Z,4.00
2017-08-08T12:42:26.344Z,5.10
2017-08-08T12:44:57.092Z,4.47
2017-08-08T12:47:27.545Z,6.20
2017-08-08T12:49:57.424Z,8.43
2017-08-08T12:52:27.789Z,9.20
2017-08-08T12:54:59.985Z,13.80
2017-08-08T12:57:31.785Z,4.43
2017-08-08T13:00:01.640Z,4.73
2017-08-08T13:02:31.951Z,5.47
2017-08-08T13:05:01.833Z,8.70
2017-08-08T13:07:31.741Z,6.60
2017-08-08T13:10:02.104Z,5.53
2017-08-08T13:12:32.044Z,5.10
2017-08-08T13:15:02.381Z,4.33
2017-08-08T13:17:32.254Z,6.83
2017-08-08T13:20:02.673Z,5.73
2017-08-08T13:22:32.527Z,6.97
2017-08-08T13:25:02.995Z,5.90
2017-08-08T13:27:32.923Z,7.20
2017-08-08T13:30:03.265Z,5.63
2017-08-08T13:32:33.165Z,6.03
2017-08-08T13:35:03.507Z,4.17
2017-08-08T13:37:33.410Z,4.80
2017-08-08T13:40:03.771Z,4.13
2017-08-08T13:42:33.644Z,4.67
2017-08-08T13:45:04.029Z,8.67
2017-08-08T13:47:33.892Z,6.10
2017-08-08T13:50:04.199Z,4.67
2017-08-08T13:52:34.080Z,8.03
2017-08-08T13:55:06.214Z,4.17
2017-08-08T13:57:36.170Z,7.63
2017-08-08T14:00:06.421Z,6.80
2017-08-08T14:02:36.275Z,6.67
2017-08-08T14:05:06.572Z,4.57
2017-08-08T14:07:36.447Z,4.00
2017-08-08T14:10:06.678Z,7.10
2017-08-08T14:12:36.559Z,6.73
2017-08-08T14:15:06.822Z,13.83
2017-08-08T14:17:36.703Z,4.20
2017-08-08T14:20:07.052Z,4.00
2017-08-08T14:22:36.921Z,4.90
2017-08-08T14:25:07.252Z,7.27
2017-08-08T14:27:37.114Z,4.00
2017-08-08T14:30:09.491Z,4.03
2017-08-08T14:32:39.357Z,8.27
2017-08-08T14:35:09.716Z,7.13
2017-08-08T14:37:39.687Z,6.00
2017-08-08T14:40:10.055Z,6.03
2017-08-08T14:42:39.962Z,5.20
2017-08-08T14:45:10.286Z,4.20
2017-08-08T14:47:40.176Z,6.03
2017-08-08T14:50:10.453Z,7.30
2017-08-08T14:52:40.338Z,11.17
2017-08-08T14:55:10.601Z,6.20
2017-08-08T14:57:40.547Z,10.83
2017-08-08T15:00:12.368Z,12.03
2017-08-08T15:02:42.314Z,9.27
2017-08-08T15:05:12.291Z,4.27
2017-08-08T15:07:42.693Z,4.63
2017-08-08T15:10:12.556Z,5.90
2017-08-08T15:12:42.888Z,8.60
2017-08-08T15:15:12.773Z,6.10
2017-08-08T15:17:42.643Z,11.23
2017-08-08T15:20:12.913Z,4.20
2017-08-08T15:22:42.911Z,3.43
2017-08-08T15:25:13.278Z,6.40
2017-08-08T15:27:43.324Z,5.73
2017-08-08T15:30:13.661Z,4.03
2017-08-08T15:32:43.610Z,3.60
2017-08-08T15:35:14.002Z,4.67
2017-08-08T15:37:43.953Z,3.77
2017-08-08T15:40:14.245Z,10.47
2017-08-08T15:42:44.134Z,7.80
2017-08-08T15:45:14.361Z,4.23
2017-08-08T15:47:44.377Z,4.57
2017-08-08T15:50:17.080Z,5.77
2017-08-08T15:52:47.027Z,3.23
2017-08-08T15:55:17.293Z,5.20
2017-08-08T15:57:47.200Z,4.00
2017-08-08T16:00:17.570Z,10.07
2017-08-08T16:02:48.354Z,12.33
2017-08-08T16:05:19.065Z,4.50
2017-08-08T16:07:50.471Z,6.50
2017-08-08T16:10:20.830Z,10.03
2017-08-08T16:12:50.944Z,4.50
2017-08-08T16:15:21.549Z,5.03
2017-08-08T16:17:51.562Z,4.13
2017-08-08T16:20:21.860Z,7.13
2017-08-08T16:22:51.732Z,5.27
2017-08-08T16:25:22.167Z,4.63
2017-08-08T16:27:52.104Z,6.43
2017-08-08T16:30:22.365Z,6.77
2017-08-08T16:32:52.255Z,5.70
2017-08-08T16:35:22.634Z,3.23
2017-08-08T16:37:52.801Z,3.93
2017-08-08T16:40:23.397Z,7.07
2017-08-08T16:42:53.402Z,4.33
2017-08-08T16:45:23.657Z,15.03
2017-08-08T16:47:53.646Z,5.23
2017-08-08T16:50:23.966Z,7.37
2017-08-08T16:52:53.871Z,3.43
2017-08-08T16:55:23.728Z,5.80
2017-08-08T16:57:53.977Z,5.67
2017-08-08T17:00:23.839Z,8.93
2017-08-08T17:02:53.751Z,8.50
2017-08-08T17:05:23.995Z,7.07
2017-08-08T17:07:53.969Z,9.40
2017-08-08T17:10:24.234Z,3.63
2017-08-08T17:12:54.187Z,5.63
2017-08-08T17:15:24.471Z,3.47
2017-08-08T17:17:54.363Z,9.00
2017-08-08T17:20:24.653Z,8.43
2017-08-08T17:22:54.477Z,5.90
2017-08-08T17:25:24.690Z,4.17
2017-08-08T17:27:54.629Z,4.00
2017-08-08T17:30:24.945Z,9.00
2017-08-08T17:32:54.841Z,7.97
2017-08-08T17:35:24.706Z,7.63
2017-08-08T17:37:54.916Z,3.90
2017-08-08T17:40:24.807Z,11.67
2017-08-08T17:42:54.816Z,6.67
2017-08-08T17:45:25.086Z,6.33
2017-08-08T17:47:55.024Z,10.10
2017-08-08T17:50:25.330Z,8.23
2017-08-08T17:52:55.967Z,4.37
2017-08-08T17:55:26.180Z,4.27
2017-08-08T17:57:56.045Z,3.90
2017-08-08T18:00:26.319Z,4.70
2017-08-08T18:02:56.174Z,4.87
2017-08-08T18:05:26.396Z,7.80
2017-08-08T18:07:56.273Z,6.10
2017-08-08T18:10:26.713Z,5.00
2017-08-08T18:12:56.609Z,7.00
2017-08-08T18:15:26.986Z,6.53
2017-08-08T18:17:56.844Z,5.47
2017-08-08T18:20:26.772Z,13.87
2017-08-08T18:22:57.165Z,9.20
2017-08-08T18:25:27.107Z,12.27
2017-08-08T18:27:57.427Z,14.10
2017-08-08T18:30:27.394Z,10.00
2017-08-08T18:32:57.848Z,12.03
2017-08-08T18:35:27.764Z,16.90
2017-08-08T18:37:58.024Z,19.10
2017-08-08T18:40:27.989Z,17.80
2017-08-08T18:42:58.408Z,10.67
2017-08-08T18:45:28.326Z,19.67
2017-08-08T18:48:01.722Z,15.27
2017-08-08T18:50:31.742Z,10.93
2017-08-08T18:53:02.134Z,12.40
2017-08-08T18:55:32.176Z,16.13
2017-08-08T18:58:02.555Z,21.43
2017-08-08T19:00:32.536Z,13.77
2017-08-08T19:03:02.919Z,14.10
2017-08-08T19:05:32.906Z,13.13
2017-08-08T19:08:03.209Z,13.00
2017-08-08T19:10:33.162Z,15.23
2017-08-08T19:13:03.603Z,15.80
2017-08-08T19:15:33.705Z,16.10
2017-08-08T19:18:06.254Z,16.50
2017-08-08T19:20:36.222Z,17.73
2017-08-08T19:23:06.687Z,16.90
2017-08-08T19:25:36.745Z,16.67
2017-08-08T19:28:07.166Z,15.97
2017-08-08T19:30:37.169Z,18.20
2017-08-08T19:33:07.631Z,18.43
2017-08-08T19:35:37.682Z,17.20
2017-08-08T19:38:08.062Z,21.67
2017-08-08T19:40:38.151Z,19.80
2017-08-08T19:43:08.644Z,19.70
2017-08-08T19:45:38.658Z,20.23
2017-08-08T19:48:09.042Z,19.20
2017-08-08T19:50:39.039Z,18.33
2017-08-08T19:53:09.465Z,19.33
2017-08-08T19:55:39.399Z,19.00
2017-08-08T19:58:09.812Z,19.80
2017-08-08T20:00:39.786Z,18.90
2017-08-08T20:03:10.326Z,19.33
2017-08-08T20:05:40.220Z,18.57
2017-08-08T20:08:10.578Z,17.70
2017-08-08T20:10:40.526Z,18.60
2017-08-08T20:13:10.800Z,22.40
2017-08-08T20:15:40.750Z,21.07
2017-08-08T20:18:11.137Z,20.23
2017-08-08T20:20:41.130Z,20.60
2017-08-08T20:23:11.467Z,20.40
2017-08-08T20:25:41.372Z,21.93
2017-08-08T20:28:11.677Z,20.70
2017-08-08T20:30:41.542Z,20.47
2017-08-08T20:33:11.839Z,21.37
2017-08-08T20:35:41.740Z,22.30
2017-08-08T20:38:12.077Z,20.80
2017-08-08T20:40:41.986Z,21.90
2017-08-08T20:43:12.362Z,22.73
2017-08-08T20:45:42.255Z,23.10
2017-08-08T20:48:12.535Z,23.33
2017-08-08T20:50:42.438Z,23.87
2017-08-08T20:53:12.665Z,24.93
2017-08-08T20:55:42.583Z,23.50
2017-08-08T20:58:12.926Z,21.37
2017-08-08T21:00:42.849Z,22.43
2017-08-08T21:03:12.770Z,22.87
2017-08-08T21:05:43.077Z,21.57
2017-08-08T21:08:12.969Z,21.27
2017-08-08T21:10:43.294Z,20.10
2017-08-08T21:13:13.188Z,18.40
2017-08-08T21:15:43.589Z,20.40
2017-08-08T21:18:14.424Z,20.83
2017-08-08T21:20:44.699Z,21.40
2017-08-08T21:23:14.596Z,19.83
2017-08-08T21:25:44.826Z,20.97
2017-08-08T21:28:14.733Z,19.20
2017-08-08T21:30:46.012Z,20.40
2017-08-08T21:33:15.952Z,19.80
2017-08-08T21:35:46.196Z,19.73
2017-08-08T21:38:16.087Z,21.50
2017-08-08T21:40:46.363Z,20.27
2017-08-08T21:43:16.255Z,20.50
2017-08-08T21:45:46.614Z,19.40
2017-08-08T21:48:16.477Z,20.67
2017-08-08T21:50:46.749Z,21.63
2017-08-08T21:53:16.664Z,22.13
2017-08-08T21:55:46.890Z,23.40
2017-08-08T21:58:16.755Z,20.47
2017-08-08T22:00:46.663Z,20.93
2017-08-08T22:03:17.027Z,22.13
2017-08-08T22:05:46.983Z,20.90
2017-08-08T22:08:17.315Z,20.97
2017-08-08T22:10:47.183Z,22.53
2017-08-08T22:13:17.506Z,21.17
2017-08-08T22:15:47.415Z,23.20
2017-08-08T22:18:17.620Z,25.13
2017-08-08T22:20:47.635Z,21.57
2017-08-08T22:23:17.945Z,22.13
2017-08-08T22:25:47.811Z,23.00
2017-08-08T22:28:18.123Z,22.50
2017-08-08T22:30:47.991Z,21.60
2017-08-08T22:33:18.247Z,20.37
2017-08-08T22:35:48.145Z,20.70
2017-08-08T22:38:18.382Z,19.80
2017-08-08T22:40:48.311Z,19.87
2017-08-08T22:43:18.620Z,20.30
2017-08-08T22:45:48.499Z,20.77
2017-08-08T22:48:18.833Z,20.07
2017-08-08T22:50:48.698Z,22.40
2017-08-08T22:53:18.960Z,22.83
2017-08-08T22:55:48.807Z,21.93
2017-08-08T22:58:18.693Z,21.37
2017-08-08T23:00:49.010Z,21.53
2017-08-08T23:03:18.897Z,20.83
2017-08-08T23:05:48.759Z,22.10
2017-08-08T23:08:19.067Z,22.00
2017-08-08T23:10:48.948Z,22.73
2017-08-08T23:13:19.209Z,23.07
2017-08-08T23:15:49.050Z,24.70
2017-08-08T23:18:19.352Z,24.67
2017-08-08T23:20:49.216Z,22.90
2017-08-08T23:23:19.431Z,25.00
2017-08-08T23:25:49.309Z,23.27
2017-08-08T23:28:19.599Z,23.13
2017-08-08T23:30:49.476Z,24.40
2017-08-08T23:33:19.754Z,25.80
2017-08-08T23:35:50.397Z,23.33
2017-08-08T23:38:20.620Z,22.43
2017-08-08T23:40:50.501Z,25.30
2017-08-08T23:43:20.753Z,24.53
2017-08-08T23:45:50.634Z,23.50
2017-08-08T23:48:21.146Z,24.63
2017-08-08T23:50:51.108Z,24.53
2017-08-08T23:53:21.326Z,25.47
2017-08-08T23:55:51.295Z,25.83
2017-08-08T23:58:21.661Z,25.20
